Time;durP1;ratioP1;P1;durP2;ratioP2;P2;SDS_P1;SDS_P2;PMS_P1;PMS_P2;Temp;Humidity;BMP_temperature;BMP_pressure;BME280_temperature;BME280_humidity;BME280_pressure;Samples;Min_cycle;Max_cycle;Signal;HPM_P1;HPM_P2
2023/07/14 00:01:35;;;;;;;3.88;1.70;;;24.20;1.00;;;;;;4935913;29;20040;-48
2023/07/14 00:04:02;;;;;;;7.10;2.10;;;24.20;1.00;;;;;;4936054;29;20048;-51
2023/07/14 00:06:29;;;;;;;4.95;1.55;;;24.20;1.00;;;;;;4935610;29;20086;-48
2023/07/14 00:08:56;;;;;;;6.50;1.88;;;24.20;1.00;;;;;;4935803;29;20098;-48
2023/07/14 00:11:24;;;;;;;7.43;1.42;;;24.20;1.00;;;;;;4935688;29;20047;-48
2023/07/14 00:13:53;;;;;;;4.75;1.83;;;24.20;1.00;;;;;;4936258;29;20094;-49
2023/07/14 00:16:21;;;;;;;3.58;1.35;;;24.20;1.00;;;;;;4954770;28;20491;-47
2023/07/14 00:18:48;;;;;;;7.93;1.77;;;24.20;1.00;;;;;;4954714;28;20046;-50
2023/07/14 00:21:23;;;;;;;3.10;1.52;;;24.20;1.00;;;;;;4954620;28;20550;-50
2023/07/14 00:23:57;;;;;;;9.25;2.03;;;24.20;1.00;;;;;;4954910;28;20043;-48
2023/07/14 00:26:24;;;;;;;4.60;1.42;;;24.20;1.00;;;;;;4954435;28;20043;-48
2023/07/14 00:28:50;;;;;;;5.15;1.42;;;24.20;1.00;;;;;;4954734;29;20112;-50
2023/07/14 00:31:19;;;;;;;4.07;1.45;;;24.20;1.00;;;;;;4953185;29;20128;-48
2023/07/14 00:33:49;;;;;;;2.55;1.02;;;24.20;1.00;;;;;;4953243;29;20045;-50
2023/07/14 00:36:19;;;;;;;2.67;1.30;;;24.20;1.00;;;;;;4953238;29;20050;-48
2023/07/14 00:38:46;;;;;;;6.38;1.85;;;24.20;1.00;;;;;;4953167;29;20048;-50
2023/07/14 00:41:23;;;;;;;5.78;1.33;;;24.20;1.00;;;;;;4953065;29;20617;-53
2023/07/14 00:43:51;;;;;;;6.43;1.95;;;24.20;1.00;;;;;;4953113;29;20043;-49
2023/07/14 00:46:30;;;;;;;4.18;1.60;;;24.20;1.00;;;;;;4953011;29;20090;-48
2023/07/14 00:49:04;;;;;;;7.15;1.35;;;24.10;1.00;;;;;;4917866;29;20071;-53
2023/07/14 00:51:33;;;;;;;;;;;24.20;1.00;;;;;;4926720;29;20055;-50
2023/07/14 00:54:00;;;;;;;2.35;1.27;;;24.10;1.00;;;;;;4935090;29;19922;-49
2023/07/14 00:56:44;;;;;;;6.35;1.42;;;24.10;1.00;;;;;;4934705;29;20444;-48
2023/07/14 00:59:17;;;;;;;5.22;1.77;;;24.10;1.00;;;;;;4935206;29;20381;-48
2023/07/14 01:02:20;;;;;;;5.53;1.48;;;24.10;1.00;;;;;;4934880;29;20479;-50
2023/07/14 01:04:59;;;;;;;5.40;2.22;;;24.10;1.00;;;;;;4933757;29;20328;-48
2023/07/14 01:07:37;;;;;;;3.70;1.23;;;24.10;1.00;;;;;;4933723;29;20396;-50
2023/07/14 01:10:08;;;;;;;4.20;1.67;;;24.10;1.00;;;;;;4934965;29;20122;-50
2023/07/14 01:12:38;;;;;;;3.33;1.10;;;24.10;1.00;;;;;;4931711;29;20444;-47
2023/07/14 01:15:06;;;;;;;3.53;1.38;;;24.10;1.00;;;;;;4931492;29;20514;-49
2023/07/14 01:17:35;;;;;;;5.78;1.65;;;24.10;1.00;;;;;;4933285;29;20456;-50
2023/07/14 01:20:08;;;;;;;8.40;1.63;;;24.10;1.00;;;;;;4934789;29;20582;-47
2023/07/14 01:22:44;;;;;;;5.38;1.83;;;24.10;1.00;;;;;;4934814;29;20075;-48
2023/07/14 01:25:15;;;;;;;4.57;2.47;;;24.10;1.00;;;;;;4933247;29;20551;-48
2023/07/14 01:27:46;;;;;;;4.88;2.17;;;24.10;1.00;;;;;;4933316;29;20071;-50
2023/07/14 01:30:14;;;;;;;6.53;2.22;;;24.10;1.00;;;;;;4934485;29;20047;-48
2023/07/14 01:32:46;;;;;;;7.85;1.67;;;24.10;1.00;;;;;;4939196;29;20501;-49
2023/07/14 01:35:14;;;;;;;5.32;1.77;;;24.10;1.00;;;;;;4952702;29;20404;-48
2023/07/14 01:37:42;;;;;;;8.60;1.58;;;24.10;1.00;;;;;;4952145;29;20040;-48
2023/07/14 01:40:18;;;;;;;5.53;1.52;;;24.10;1.00;;;;;;4952276;29;20062;-48
2023/07/14 01:42:51;;;;;;;4.22;1.30;;;24.10;1.00;;;;;;4952282;29;20040;-49
2023/07/14 01:45:19;;;;;;;4.50;1.40;;;24.10;1.00;;;;;;4936453;29;20090;-49
2023/07/14 01:47:54;;;;;;;3.17;1.10;;;24.10;1.00;;;;;;4947088;28;20555;-49
2023/07/14 01:50:37;;;;;;;7.57;1.50;;;24.10;1.00;;;;;;4932947;29;20138;-49
2023/07/14 01:53:15;;;;;;;3.97;1.35;;;24.10;1.00;;;;;;4934529;29;20527;-49
2023/07/14 01:55:44;;;;;;;8.90;1.60;;;24.10;1.00;;;;;;4934312;29;20403;-47
2023/07/14 01:58:21;;;;;;;4.45;1.55;;;24.00;1.00;;;;;;4941459;29;20046;-47
2023/07/14 02:00:49;;;;;;;6.13;1.52;;;24.00;1.00;;;;;;4952122;29;20470;-49
2023/07/14 02:03:26;;;;;;;6.25;1.67;;;24.00;1.00;;;;;;4952169;29;20051;-53
2023/07/14 02:05:53;;;;;;;3.67;1.27;;;24.00;1.00;;;;;;4953421;28;20073;-49
2023/07/14 02:08:25;;;;;;;10.88;1.77;;;24.00;1.00;;;;;;4946319;29;20054;-48
2023/07/14 02:10:53;;;;;;;4.13;1.60;;;24.00;1.00;;;;;;4933952;29;20043;-48
2023/07/14 02:13:22;;;;;;;2.92;1.50;;;24.00;1.00;;;;;;4928171;29;20336;-48
2023/07/14 02:15:51;;;;;;;3.85;1.65;;;24.00;1.00;;;;;;4953181;28;20126;-48
2023/07/14 02:18:25;;;;;;;9.00;1.35;;;24.00;1.00;;;;;;4953291;28;20046;-50
2023/07/14 02:20:54;;;;;;;4.95;1.30;;;24.00;1.00;;;;;;4952085;29;20048;-51
2023/07/14 02:23:23;;;;;;;7.63;2.03;;;24.00;1.00;;;;;;4951947;29;20047;-49
2023/07/14 02:26:18;;;;;;;7.07;1.98;;;24.00;1.00;;;;;;4953080;28;20047;-49
2023/07/14 02:28:45;;;;;;;4.18;1.17;;;24.00;1.00;;;;;;4944958;29;20135;-48
2023/07/14 02:31:27;;;;;;;5.40;1.55;;;24.00;1.00;;;;;;4953051;29;20046;-48
2023/07/14 02:33:54;;;;;;;3.45;1.55;;;24.00;1.00;;;;;;4952214;29;20118;-47
2023/07/14 02:36:49;;;;;;;7.45;2.25;;;24.00;1.00;;;;;;4952240;28;20487;-47
2023/07/14 02:39:16;;;;;;;3.65;1.73;;;24.00;1.00;;;;;;4955286;29;20043;-49
2023/07/14 02:41:43;;;;;;;5.47;1.40;;;24.00;1.00;;;;;;4955319;29;20046;-49
2023/07/14 02:44:14;;;;;;;5.07;1.73;;;24.00;1.00;;;;;;4955363;29;20051;-49
2023/07/14 02:47:07;;;;;;;4.07;1.50;;;24.00;1.00;;;;;;4956455;28;20035;-51
2023/07/14 02:49:33;;;;;;;6.82;1.80;;;24.00;1.00;;;;;;4935700;29;20082;-49
2023/07/14 02:52:00;;;;;;;3.00;1.25;;;24.00;1.00;;;;;;4937284;29;20044;-51
2023/07/14 02:54:27;;;;;;;5.85;2.80;;;24.00;1.00;;;;;;4937155;29;20428;-51
2023/07/14 02:56:55;;;;;;;4.05;1.58;;;24.00;1.00;;;;;;4935850;29;20073;-50
2023/07/14 02:59:22;;;;;;;4.03;1.40;;;24.00;1.00;;;;;;4937195;29;20496;-48
2023/07/14 03:01:49;;;;;;;4.82;1.77;;;24.00;1.00;;;;;;4935829;29;20048;-50
2023/07/14 03:04:17;;;;;;;5.75;1.58;;;24.00;1.00;;;;;;4936904;29;20516;-50
2023/07/14 03:06:44;;;;;;;7.88;1.90;;;24.00;1.00;;;;;;4936910;29;20053;-49
2023/07/14 03:09:13;;;;;;;4.00;1.33;;;24.00;1.00;;;;;;4935744;29;20090;-50
2023/07/14 03:11:40;;;;;;;6.25;1.67;;;23.90;1.00;;;;;;4935614;29;20127;-49
2023/07/14 03:14:08;;;;;;;3.92;1.38;;;23.90;1.00;;;;;;4936143;29;20058;-49
2023/07/14 03:16:36;;;;;;;6.65;1.88;;;23.90;1.00;;;;;;4954642;29;20044;-49
2023/07/14 03:19:03;;;;;;;3.88;1.15;;;24.00;1.00;;;;;;4956002;28;20097;-49
2023/07/14 03:21:31;;;;;;;5.72;1.50;;;23.90;1.00;;;;;;4955759;29;20070;-52
2023/07/14 03:23:58;;;;;;;3.58;1.25;;;23.90;1.00;;;;;;4955908;28;20043;-49
2023/07/14 03:26:26;;;;;;;6.32;1.63;;;24.00;1.00;;;;;;4955582;28;20059;-49
2023/07/14 03:28:53;;;;;;;3.97;1.58;;;24.00;1.00;;;;;;4956004;28;20232;-49
2023/07/14 03:31:20;;;;;;;5.63;1.95;;;24.00;1.00;;;;;;4955598;28;20500;-49
2023/07/14 03:33:47;;;;;;;2.88;1.50;;;23.90;1.00;;;;;;4954558;29;20043;-50
2023/07/14 03:36:14;;;;;;;5.15;1.65;;;23.90;1.00;;;;;;4955505;28;20098;-47
2023/07/14 03:38:43;;;;;;;5.40;1.35;;;23.90;1.00;;;;;;4955674;28;20035;-49
2023/07/14 03:41:12;;;;;;;4.53;1.52;;;23.90;1.00;;;;;;4954796;28;20054;-49
2023/07/14 03:43:40;;;;;;;5.10;1.83;;;23.90;1.00;;;;;;4927012;29;20043;-50
2023/07/14 03:46:07;;;;;;;4.10;1.58;;;23.90;1.00;;;;;;4935786;29;20114;-49
2023/07/14 03:48:35;;;;;;;8.63;1.98;;;23.90;1.00;;;;;;4940257;28;20046;-50
2023/07/14 03:51:03;;;;;;;3.08;1.33;;;23.90;1.00;;;;;;4934708;29;20044;-51
2023/07/14 03:53:30;;;;;;;3.80;1.60;;;23.90;1.00;;;;;;4934683;29;20040;-53
2023/07/14 03:55:58;;;;;;;3.40;1.38;;;23.90;1.00;;;;;;4935965;29;20063;-49
2023/07/14 03:58:25;;;;;;;3.63;1.17;;;23.90;1.00;;;;;;4934864;29;20043;-49
2023/07/14 04:00:59;;;;;;;4.05;1.55;;;23.90;1.00;;;;;;4936072;29;20044;-49
2023/07/14 04:03:26;;;;;;;2.72;1.38;;;23.90;1.00;;;;;;4936104;29;20047;-49
2023/07/14 04:05:53;;;;;;;4.35;1.65;;;23.90;1.00;;;;;;4934422;29;20058;-49
2023/07/14 04:08:21;;;;;;;7.70;1.95;;;23.80;1.00;;;;;;4927060;29;20409;-49
2023/07/14 04:10:48;;;;;;;5.20;1.73;;;23.80;1.00;;;;;;4926258;29;20146;-49
2023/07/14 04:13:15;;;;;;;8.98;2.60;;;23.80;1.00;;;;;;4928061;29;20522;-49
2023/07/14 04:15:42;;;;;;;8.07;2.03;;;23.80;1.00;;;;;;4942127;29;20040;-49
2023/07/14 04:18:09;;;;;;;4.78;2.67;;;23.80;1.00;;;;;;4942744;29;20039;-49
2023/07/14 04:20:36;;;;;;;5.70;1.63;;;23.80;1.00;;;;;;4944218;28;20047;-51
2023/07/14 04:23:05;;;;;;;13.85;4.22;;;23.80;1.00;;;;;;4935953;29;20523;-49
2023/07/14 04:25:34;;;;;;;8.40;2.67;;;23.80;1.00;;;;;;4941048;29;20432;-50
2023/07/14 04:28:02;;;;;;;14.00;3.38;;;23.70;1.00;;;;;;4943605;29;20123;-49
2023/07/14 04:30:30;;;;;;;16.80;3.20;;;23.80;1.00;;;;;;4935302;29;20103;-49
2023/07/14 04:32:57;;;;;;;11.38;2.08;;;23.70;1.00;;;;;;4935595;29;20063;-50
2023/07/14 04:35:25;;;;;;;12.35;2.20;;;23.70;1.00;;;;;;4935117;29;20036;-48
2023/07/14 04:37:52;;;;;;;12.35;2.22;;;23.70;1.00;;;;;;4947848;29;20045;-49
2023/07/14 04:40:19;;;;;;;6.75;1.90;;;23.70;1.00;;;;;;4954418;28;20106;-49
2023/07/14 04:43:02;;;;;;;;;;;23.70;1.00;;;;;;4955238;29;20047;-49
2023/07/14 04:45:29;;;;;;;8.60;2.40;;;23.70;1.00;;;;;;4954164;28;19922;-49
2023/07/14 04:47:56;;;;;;;8.82;2.70;;;23.70;1.00;;;;;;4946382;29;20131;-50
2023/07/14 04:50:25;;;;;;;2.28;1.45;;;23.70;1.00;;;;;;4935014;29;20052;-49
2023/07/14 04:52:53;;;;;;;4.10;2.47;;;23.70;1.00;;;;;;4935105;29;20039;-51
2023/07/14 04:55:20;;;;;;;6.40;1.98;;;23.70;1.00;;;;;;4926568;29;20046;-52
2023/07/14 04:57:47;;;;;;;9.10;2.13;;;23.70;1.00;;;;;;4946476;28;20418;-49
2023/07/14 05:00:17;;;;;;;4.78;2.10;;;23.60;1.00;;;;;;4952559;28;20066;-48
2023/07/14 05:02:44;;;;;;;6.40;1.92;;;23.70;1.00;;;;;;4954152;28;20114;-50
2023/07/14 05:05:14;;;;;;;4.82;1.58;;;23.60;1.00;;;;;;4954465;29;20078;-49
2023/07/14 05:07:41;;;;;;;7.32;2.38;;;23.70;1.00;;;;;;4953941;28;20031;-50
2023/07/14 05:10:09;;;;;;;6.80;2.25;;;23.70;1.00;;;;;;4941991;29;20060;-53
2023/07/14 05:12:36;;;;;;;7.75;2.00;;;23.70;1.00;;;;;;4933631;29;20503;-50
2023/07/14 05:15:06;;;;;;;6.00;2.45;;;23.60;1.00;;;;;;4935350;29;20044;-52
2023/07/14 05:17:36;;;;;;;8.43;1.58;;;23.60;1.00;;;;;;4934836;29;20107;-51
2023/07/14 05:20:06;;;;;;;6.30;2.00;;;23.60;1.00;;;;;;4935058;29;20040;-51
2023/07/14 05:22:33;;;;;;;6.25;2.03;;;23.70;1.00;;;;;;4934916;29;20050;-51
2023/07/14 05:25:00;;;;;;;6.85;1.48;;;23.70;1.00;;;;;;4934902;29;20544;-50
2023/07/14 05:27:26;;;;;;;4.53;1.48;;;23.60;1.00;;;;;;4934323;29;20499;-50
2023/07/14 05:29:53;;;;;;;8.90;2.08;;;23.60;1.00;;;;;;4934795;29;20527;-50
2023/07/14 05:32:22;;;;;;;4.93;1.52;;;23.70;1.00;;;;;;4934693;29;20122;-50
2023/07/14 05:34:50;;;;;;;7.32;1.83;;;23.60;1.00;;;;;;4953787;28;20510;-49
2023/07/14 05:37:18;;;;;;;4.68;1.75;;;23.60;1.00;;;;;;4953503;28;20114;-50
2023/07/14 05:39:45;;;;;;;4.22;1.60;;;23.60;1.00;;;;;;4953585;28;20035;-49
2023/07/14 05:42:12;;;;;;;5.35;2.65;;;23.60;1.00;;;;;;4953725;29;20513;-50
2023/07/14 05:44:39;;;;;;;5.13;2.13;;;23.60;1.00;;;;;;4953847;28;20039;-49
2023/07/14 05:47:06;;;;;;;4.90;2.50;;;23.60;1.00;;;;;;4952789;28;20449;-51
2023/07/14 05:49:33;;;;;;;5.85;1.60;;;23.60;1.00;;;;;;4934965;29;20102;-49
2023/07/14 05:52:01;;;;;;;6.80;1.95;;;23.60;1.00;;;;;;4934471;29;20352;-49
2023/07/14 05:54:28;;;;;;;5.40;1.85;;;23.70;1.00;;;;;;4934435;29;20071;-50
2023/07/14 05:56:56;;;;;;;6.20;2.45;;;23.60;1.00;;;;;;4934618;29;20523;-51
2023/07/14 05:59:23;;;;;;;4.45;1.75;;;23.60;1.00;;;;;;4934469;29;20039;-49
2023/07/14 06:01:50;;;;;;;4.85;1.83;;;23.60;1.00;;;;;;4934331;29;20039;-50
2023/07/14 06:04:17;;;;;;;2.22;1.40;;;23.70;1.00;;;;;;4934658;29;20044;-49
2023/07/14 06:06:44;;;;;;;5.05;1.70;;;23.70;1.00;;;;;;4934370;29;20040;-49
2023/07/14 06:09:13;;;;;;;3.83;2.15;;;23.70;1.00;;;;;;4934826;29;20126;-52
2023/07/14 06:11:41;;;;;;;3.10;1.10;;;23.70;1.00;;;;;;4935633;29;20039;-49
2023/07/14 06:14:08;;;;;;;6.25;1.80;;;23.70;1.00;;;;;;4952021;29;20114;-49
2023/07/14 06:16:37;;;;;;;6.22;1.52;;;23.70;1.00;;;;;;4957187;28;20039;-50
2023/07/14 06:19:05;;;;;;;5.22;2.17;;;23.70;1.00;;;;;;4957196;28;20415;-49
2023/07/14 06:21:32;;;;;;;4.95;1.58;;;23.70;1.00;;;;;;4957074;29;20514;-52
2023/07/14 06:23:59;;;;;;;4.90;1.80;;;23.70;1.00;;;;;;4957224;28;20522;-49
2023/07/14 06:26:28;;;;;;;3.97;1.42;;;23.70;1.00;;;;;;4956808;28;20047;-49
2023/07/14 06:28:54;;;;;;;4.80;1.55;;;23.70;1.00;;;;;;4957247;28;20127;-49
2023/07/14 06:31:23;;;;;;;4.20;2.25;;;23.70;1.00;;;;;;4957218;29;20040;-49
2023/07/14 06:33:50;;;;;;;6.68;2.17;;;23.70;1.00;;;;;;4957413;28;20384;-49
2023/07/14 06:36:17;;;;;;;7.35;2.28;;;23.80;1.00;;;;;;4956764;29;20118;-51
2023/07/14 06:38:44;;;;;;;4.68;1.60;;;23.70;1.00;;;;;;4957087;28;20047;-49
2023/07/14 06:41:11;;;;;;;4.00;1.90;;;23.80;1.00;;;;;;4956926;28;20559;-49
2023/07/14 06:43:38;;;;;;;3.47;2.35;;;23.80;1.00;;;;;;4957097;29;20075;-49
2023/07/14 06:46:05;;;;;;;7.55;1.98;;;23.80;1.00;;;;;;4957531;29;20047;-49
2023/07/14 06:48:32;;;;;;;4.43;1.40;;;23.80;1.00;;;;;;4945763;28;20043;-54
2023/07/14 06:50:59;;;;;;;6.82;1.90;;;23.80;1.00;;;;;;4939451;29;20046;-53
2023/07/14 06:53:26;;;;;;;6.60;1.80;;;23.80;1.00;;;;;;4938846;29;20050;-54
2023/07/14 06:55:54;;;;;;;3.85;1.60;;;23.80;1.00;;;;;;4939510;29;20035;-53
2023/07/14 06:58:21;;;;;;;3.33;1.75;;;23.80;1.00;;;;;;4938761;29;20067;-52
2023/07/14 07:00:48;;;;;;;4.03;1.75;;;23.80;1.00;;;;;;4939824;29;20036;-55
2023/07/14 07:03:15;;;;;;;4.13;2.00;;;23.80;1.00;;;;;;4939164;29;20044;-51
2023/07/14 07:05:44;;;;;;;5.22;2.30;;;23.80;1.00;;;;;;4940757;29;20508;-54
2023/07/14 07:08:13;;;;;;;4.00;1.83;;;23.80;1.00;;;;;;4938639;29;20119;-52
2023/07/14 07:10:41;;;;;;;6.43;2.13;;;23.80;1.00;;;;;;4940239;29;20054;-54
2023/07/14 07:13:12;;;;;;;3.22;1.77;;;23.90;1.00;;;;;;4939115;29;20047;-54
2023/07/14 07:15:39;;;;;;;4.25;2.35;;;23.90;1.00;;;;;;4939322;29;20102;-52
2023/07/14 07:18:07;;;;;;;5.40;1.73;;;23.90;1.00;;;;;;4938375;29;20397;-52
2023/07/14 07:20:41;;;;;;;5.13;1.60;;;23.90;1.00;;;;;;4937881;29;20042;-52
2023/07/14 07:23:08;;;;;;;5.53;1.88;;;23.90;1.00;;;;;;4937829;29;20114;-51
2023/07/14 07:25:36;;;;;;;3.92;1.58;;;23.90;1.00;;;;;;4938339;29;20068;-49
2023/07/14 07:28:04;;;;;;;4.57;1.83;;;23.90;1.00;;;;;;4940349;29;20452;-53
2023/07/14 07:30:31;;;;;;;3.95;1.67;;;23.90;1.00;;;;;;4940529;29;20040;-50
2023/07/14 07:32:58;;;;;;;3.70;1.95;;;23.90;1.00;;;;;;4940783;29;20044;-55
2023/07/14 07:35:26;;;;;;;3.50;1.40;;;23.90;1.00;;;;;;4941024;29;20047;-50
2023/07/14 07:37:53;;;;;;;3.30;1.90;;;23.90;1.00;;;;;;4940970;29;20044;-49
2023/07/14 07:40:20;;;;;;;3.28;1.70;;;23.90;1.00;;;;;;4940382;29;20048;-51
2023/07/14 07:42:47;;;;;;;5.88;2.15;;;23.90;1.00;;;;;;4940132;29;21031;-52
2023/07/14 07:45:16;;;;;;;6.38;2.90;;;24.00;1.00;;;;;;4939869;29;20381;-52
2023/07/14 07:47:45;;;;;;;5.07;1.30;;;23.90;1.00;;;;;;4941397;29;20043;-52
2023/07/14 07:50:12;;;;;;;4.25;1.83;;;23.90;1.00;;;;;;4959330;28;20130;-51
2023/07/14 07:52:40;;;;;;;4.00;1.73;;;23.90;1.00;;;;;;4957924;29;20043;-51
2023/07/14 07:55:08;;;;;;;3.95;1.70;;;23.90;1.00;;;;;;4959190;28;20392;-52
2023/07/14 07:57:35;;;;;;;3.50;1.60;;;23.90;1.00;;;;;;4957141;29;20070;-51
2023/07/14 08:00:04;;;;;;;7.18;2.35;;;23.90;1.00;;;;;;4959262;28;20099;-53
2023/07/14 08:02:40;;;;;;;5.07;1.70;;;23.90;1.00;;;;;;4957823;28;20671;-50
2023/07/14 08:05:08;;;;;;;4.65;2.70;;;23.90;1.00;;;;;;4955132;28;20061;-49
2023/07/14 08:07:35;;;;;;;5.93;1.80;;;23.90;1.00;;;;;;4954746;28;20062;-49
2023/07/14 08:10:03;;;;;;;4.18;1.75;;;24.00;1.00;;;;;;4949885;28;20047;-54
2023/07/14 08:12:29;;;;;;;5.35;2.17;;;23.90;1.00;;;;;;4924904;29;20107;-50
2023/07/14 08:14:57;;;;;;;3.95;1.70;;;23.90;1.00;;;;;;4954969;29;20069;-49
2023/07/14 08:17:26;;;;;;;3.47;2.33;;;24.00;1.00;;;;;;4954686;28;20086;-50
2023/07/14 08:19:54;;;;;;;4.03;1.85;;;23.90;1.00;;;;;;4954839;28;20058;-51
2023/07/14 08:22:22;;;;;;;4.70;2.08;;;23.90;1.00;;;;;;4954558;28;20043;-50
2023/07/14 08:24:49;;;;;;;4.88;2.10;;;24.00;1.00;;;;;;4954756;28;20410;-49
2023/07/14 08:27:16;;;;;;;3.78;1.75;;;23.90;1.00;;;;;;4954317;29;20051;-49
2023/07/14 08:29:43;;;;;;;5.53;2.63;;;24.00;1.00;;;;;;4954631;28;20504;-48
2023/07/14 08:32:10;;;;;;;2.70;1.48;;;24.00;1.00;;;;;;4954865;28;20051;-49
2023/07/14 08:34:37;;;;;;;4.13;2.00;;;24.00;1.00;;;;;;4953810;28;20066;-48
2023/07/14 08:37:07;;;;;;;3.50;1.45;;;24.00;1.00;;;;;;4954097;29;20043;-53
2023/07/14 08:39:34;;;;;;;8.27;2.08;;;24.00;1.00;;;;;;4954406;28;20439;-48
2023/07/14 08:42:26;;;;;;;7.82;2.20;;;24.00;1.00;;;;;;4942351;28;20531;-52
2023/07/14 08:45:12;;;;;;;3.40;2.25;;;24.00;1.00;;;;;;4946108;29;20035;-50
2023/07/14 08:48:17;;;;;;;8.20;2.40;;;24.00;1.00;;;;;;4948499;28;20504;-49
2023/07/14 08:50:46;;;;;;;6.22;2.03;;;24.00;1.00;;;;;;4908870;29;20059;-51
2023/07/14 08:53:21;;;;;;;4.63;2.13;;;24.00;1.00;;;;;;4934956;29;20127;-49
2023/07/14 08:55:48;;;;;;;5.45;2.00;;;24.00;1.00;;;;;;4934817;29;20051;-49
2023/07/14 08:58:21;;;;;;;3.10;1.40;;;24.00;1.00;;;;;;4934931;29;20067;-48
2023/07/14 09:00:52;;;;;;;3.58;1.95;;;23.90;1.00;;;;;;4934878;29;20050;-48
2023/07/14 09:03:42;;;;;;;4.28;1.75;;;24.00;1.00;;;;;;4935042;29;20055;-49
2023/07/14 09:06:30;;;;;;;3.35;1.60;;;24.00;1.00;;;;;;4934665;29;20091;-48
2023/07/14 09:08:57;;;;;;;7.53;1.90;;;24.00;1.00;;;;;;4934868;29;20306;-50
2023/07/14 09:11:30;;;;;;;6.60;1.98;;;24.00;1.00;;;;;;4934622;29;20075;-49
2023/07/14 09:14:05;;;;;;;3.63;1.48;;;24.00;1.00;;;;;;4944414;29;20127;-51
2023/07/14 09:16:37;;;;;;;7.18;2.42;;;24.00;1.00;;;;;;4953648;28;20043;-52
2023/07/14 09:19:23;;;;;;;4.32;2.00;;;24.00;1.00;;;;;;4953781;28;20035;-50
2023/07/14 09:22:25;;;;;;;5.90;2.20;;;24.00;1.00;;;;;;4953990;28;20403;-52
2023/07/14 09:24:55;;;;;;;3.92;1.35;;;24.00;1.00;;;;;;4953637;28;20566;-49
2023/07/14 09:27:27;;;;;;;4.53;1.60;;;24.00;1.00;;;;;;4953599;28;20046;-52
2023/07/14 09:29:55;;;;;;;5.38;1.73;;;24.00;1.00;;;;;;4953814;28;20047;-50
2023/07/14 09:32:25;;;;;;;5.50;1.70;;;24.00;1.00;;;;;;4953589;28;20380;-52
2023/07/14 09:35:09;;;;;;;4.68;2.20;;;24.00;1.00;;;;;;4953620;29;20039;-50
2023/07/14 09:38:03;;;;;;;5.32;2.20;;;24.00;1.00;;;;;;4953474;28;20039;-52
2023/07/14 09:40:36;;;;;;;3.65;1.67;;;24.00;1.00;;;;;;4953539;28;20090;-49
2023/07/14 09:43:05;;;;;;;4.15;2.22;;;24.00;1.00;;;;;;4953485;28;20039;-50
2023/07/14 09:45:38;;;;;;;3.42;1.77;;;24.00;1.00;;;;;;4954622;28;20043;-52
2023/07/14 09:48:11;;;;;;;5.47;2.22;;;24.00;1.00;;;;;;4948596;28;20044;-48
2023/07/14 09:50:49;;;;;;;5.25;1.98;;;24.00;1.00;;;;;;4938277;29;20044;-51
2023/07/14 09:53:15;;;;;;;6.03;2.10;;;24.00;1.00;;;;;;4938325;29;20508;-49
2023/07/14 09:55:50;;;;;;;3.85;1.73;;;24.00;1.00;;;;;;4938172;29;20036;-50
2023/07/14 09:58:22;;;;;;;3.92;1.83;;;24.00;1.00;;;;;;4938092;29;20122;-48
2023/07/14 10:00:52;;;;;;;5.30;1.80;;;24.00;1.00;;;;;;4938117;29;20044;-48
2023/07/14 10:03:25;;;;;;;4.85;2.13;;;24.00;1.00;;;;;;4938204;29;20071;-49
2023/07/14 10:06:20;;;;;;;4.13;1.90;;;24.00;1.00;;;;;;4938028;29;20516;-53
2023/07/14 10:08:54;;;;;;;3.17;1.50;;;24.00;1.00;;;;;;4937916;29;20047;-50
2023/07/14 10:11:30;;;;;;;6.10;1.65;;;24.00;1.00;;;;;;4937740;29;20058;-50
2023/07/14 10:14:01;;;;;;;3.58;1.15;;;24.00;1.00;;;;;;4947110;29;20388;-50
2023/07/14 10:16:33;;;;;;;3.50;1.50;;;24.00;1.00;;;;;;4957176;28;20127;-51
2023/07/14 10:19:11;;;;;;;3.13;1.75;;;24.00;1.00;;;;;;4956883;28;20067;-51
2023/07/14 10:21:55;;;;;;;3.05;1.60;;;24.00;1.00;;;;;;4956996;28;20067;-50
2023/07/14 10:24:23;;;;;;;3.10;1.80;;;24.00;1.00;;;;;;4957071;28;20118;-47
2023/07/14 10:27:01;;;;;;;5.35;1.95;;;24.00;1.00;;;;;;4956666;28;20073;-50
2023/07/14 10:29:47;;;;;;;3.92;1.55;;;24.00;1.00;;;;;;4956853;28;20054;-48
2023/07/14 10:32:33;;;;;;;3.42;1.95;;;24.00;1.00;;;;;;4956673;28;20043;-50
2023/07/14 10:35:18;;;;;;;4.35;1.83;;;24.00;1.00;;;;;;4956802;28;20114;-48
2023/07/14 10:37:58;;;;;;;3.83;2.28;;;24.00;1.00;;;;;;4956466;28;20069;-48
2023/07/14 10:40:38;;;;;;;4.97;2.13;;;24.00;1.00;;;;;;4956762;28;20476;-48
2023/07/14 10:43:18;;;;;;;5.03;1.50;;;24.00;1.00;;;;;;4956545;28;20121;-48
2023/07/14 10:45:49;;;;;;;3.92;1.88;;;24.00;1.00;;;;;;4956331;29;20403;-48
2023/07/14 10:48:38;;;;;;;4.05;1.50;;;24.00;1.00;;;;;;4946089;29;20408;-49
2023/07/14 10:51:18;;;;;;;2.75;1.67;;;24.00;1.00;;;;;;4937416;29;20054;-50
2023/07/14 10:53:55;;;;;;;5.70;1.80;;;24.00;1.00;;;;;;4937190;29;20095;-47
2023/07/14 10:56:26;;;;;;;2.63;1.10;;;24.00;1.00;;;;;;4937103;29;20040;-50
2023/07/14 10:59:02;;;;;;;3.40;1.70;;;24.00;1.00;;;;;;4936799;29;20119;-50
2023/07/14 11:01:36;;;;;;;2.55;1.52;;;24.00;1.00;;;;;;4937346;29;20123;-49
2023/07/14 11:04:19;;;;;;;3.85;2.15;;;24.00;1.00;;;;;;4937184;29;20036;-49
2023/07/14 11:06:48;;;;;;;3.60;1.58;;;24.00;1.00;;;;;;4937009;29;20044;-50
2023/07/14 11:09:15;;;;;;;3.55;1.45;;;24.00;1.00;;;;;;4942142;29;20074;-48
2023/07/14 11:12:07;;;;;;;4.95;2.13;;;24.00;1.00;;;;;;4940319;28;20055;-50
2023/07/14 11:15:12;;;;;;;3.33;1.58;;;24.00;1.00;;;;;;4942570;29;20035;-51
2023/07/14 11:18:01;;;;;;;7.00;1.40;;;24.10;1.00;;;;;;4935086;29;20416;-50
2023/07/14 11:20:39;;;;;;;3.20;1.77;;;24.00;1.00;;;;;;4937095;29;20114;-51
2023/07/14 11:23:29;;;;;;;5.43;1.50;;;24.00;1.00;;;;;;4936888;29;20062;-52
2023/07/14 11:26:24;;;;;;;5.25;1.80;;;24.10;1.00;;;;;;4936224;29;20072;-51
2023/07/14 11:29:22;;;;;;;3.20;1.48;;;24.00;1.00;;;;;;4936800;29;20110;-49
2023/07/14 11:31:53;;;;;;;3.92;1.25;;;24.00;1.00;;;;;;4936390;29;20048;-50
2023/07/14 11:34:34;;;;;;;3.55;1.65;;;24.00;1.00;;;;;;4936750;29;20487;-52
2023/07/14 11:37:07;;;;;;;3.15;1.40;;;24.00;1.00;;;;;;4936489;29;20067;-49
2023/07/14 11:39:46;;;;;;;3.97;1.60;;;24.00;1.00;;;;;;4936545;29;20048;-51
2023/07/14 11:42:24;;;;;;;5.38;1.42;;;24.10;1.00;;;;;;4936376;29;20122;-51
2023/07/14 11:44:53;;;;;;;7.50;2.67;;;24.00;1.00;;;;;;4936355;29;20047;-49
2023/07/14 11:47:30;;;;;;;2.95;1.67;;;24.10;1.00;;;;;;4936075;29;20559;-50
2023/07/14 11:50:01;;;;;;;2.85;1.27;;;24.10;1.00;;;;;;4954059;29;20126;-50
2023/07/14 11:52:30;;;;;;;6.20;1.83;;;24.10;1.00;;;;;;4955277;28;20039;-52
2023/07/14 11:55:00;;;;;;;4.28;2.17;;;24.10;1.00;;;;;;4955032;28;20043;-50
2023/07/14 11:57:29;;;;;;;7.20;1.92;;;24.10;1.00;;;;;;4955113;28;20142;-49
2023/07/14 12:00:06;;;;;;;3.03;1.45;;;24.10;1.00;;;;;;4955372;29;20039;-49
2023/07/14 12:02:46;;;;;;;3.97;1.52;;;24.10;1.00;;;;;;4947972;28;20107;-52
2023/07/14 12:05:17;;;;;;;3.67;1.30;;;24.10;1.00;;;;;;4933975;29;20049;-49
2023/07/14 12:08:05;;;;;;;3.08;1.60;;;24.10;1.00;;;;;;4954989;28;20423;-49
2023/07/14 12:10:38;;;;;;;4.45;1.65;;;24.10;1.00;;;;;;4954208;29;20047;-50
2023/07/14 12:13:27;;;;;;;6.03;1.65;;;24.10;1.00;;;;;;4935661;29;20043;-49
2023/07/14 12:15:56;;;;;;;2.67;1.70;;;24.10;1.00;;;;;;4955031;29;20495;-49
2023/07/14 12:18:33;;;;;;;3.95;1.65;;;24.10;1.00;;;;;;4955099;29;20428;-49
2023/07/14 12:21:14;;;;;;;3.05;1.67;;;24.10;1.00;;;;;;4954942;28;20455;-49
2023/07/14 12:23:44;;;;;;;3.13;1.48;;;24.10;1.00;;;;;;4954711;29;20048;-49
2023/07/14 12:26:17;;;;;;;3.58;1.38;;;24.10;1.00;;;;;;4954546;28;20043;-50
2023/07/14 12:28:48;;;;;;;3.92;1.48;;;24.10;1.00;;;;;;4954744;28;20137;-50
2023/07/14 12:31:18;;;;;;;3.72;1.83;;;24.10;1.00;;;;;;4954926;28;20054;-50
2023/07/14 12:33:47;;;;;;;2.78;1.70;;;24.10;1.00;;;;;;4954539;28;20039;-50
2023/07/14 12:36:19;;;;;;;6.68;1.63;;;24.10;1.00;;;;;;4942737;28;20043;-50
2023/07/14 12:38:51;;;;;;;4.43;2.00;;;24.10;1.00;;;;;;4935433;29;20074;-51
2023/07/14 12:41:18;;;;;;;4.70;2.08;;;24.10;1.00;;;;;;4935406;29;20268;-50
2023/07/14 12:43:49;;;;;;;5.97;2.63;;;24.10;1.00;;;;;;4935239;29;20044;-49
2023/07/14 12:46:23;;;;;;;5.65;1.63;;;24.10;1.00;;;;;;4935240;29;20072;-49
2023/07/14 12:48:56;;;;;;;3.45;1.83;;;24.10;1.00;;;;;;4943661;29;20134;-50
2023/07/14 12:51:23;;;;;;;4.90;1.77;;;24.10;1.00;;;;;;4954389;28;20047;-50
2023/07/14 12:54:01;;;;;;;5.82;1.88;;;24.10;1.00;;;;;;4954078;28;20031;-49
2023/07/14 12:56:29;;;;;;;2.97;1.58;;;24.10;1.00;;;;;;4954229;28;20036;-51
2023/07/14 12:58:59;;;;;;;4.15;1.63;;;24.10;1.00;;;;;;4954326;28;20051;-49
2023/07/14 13:01:26;;;;;;;2.35;1.65;;;24.10;1.00;;;;;;4954148;28;20067;-52
2023/07/14 13:03:53;;;;;;;2.70;1.52;;;24.10;1.00;;;;;;4954098;28;20566;-49
2023/07/14 13:06:23;;;;;;;2.88;1.63;;;24.10;1.00;;;;;;4954065;29;20047;-49
2023/07/14 13:08:51;;;;;;;2.92;2.17;;;24.10;1.00;;;;;;4954113;28;20039;-50
2023/07/14 13:11:25;;;;;;;3.25;1.70;;;24.10;1.00;;;;;;4948384;28;20059;-52
2023/07/14 13:13:56;;;;;;;4.13;1.70;;;24.10;1.00;;;;;;4940478;29;20047;-50
2023/07/14 13:16:37;;;;;;;2.47;1.50;;;24.10;1.00;;;;;;4953797;28;20044;-48
2023/07/14 13:19:37;;;;;;;3.10;1.33;;;24.10;1.00;;;;;;4953788;28;20039;-48
2023/07/14 13:22:04;;;;;;;4.50;1.70;;;24.20;1.00;;;;;;4953583;28;20123;-51